Portada
METAR-TAF:

METAR-TAF

Aeroports :

Nagpur, Índia

latitud: 21-06N, longitud: 079-03E, altitud: 308 m

Observació

L'informe es va fer fa 42 minuts, a les 17:00 UTC
Vent 3 kt del Sud
Temperatura 28°C
Humitat 62%
Pressió 1012 hPa
Visibilitat: 3000 m
Escasses núvols a una alçada de 2000 ft
Escasses núvols a una alçada de 3000 ft, Cumulonimbus.
Núvols disperses a una alçada de 10000 ft
calitja

METAR: VANP 211700Z 19003KT 3000 HZ FEW020 FEW030CB SCT100 28/20 Q1012 NOSIG

Hora: 23:12 (17:42 UTC)

Pronòstic

L'informe es va fer fa 42 minuts, a les 17:00 UTC
Pronòstic vàlid del 21 a les 18 UTC al 22 a les 03 UTC
Vent 3 kt amb direcció variable
Visibilitat: 2500 m
Escasses núvols a una alçada de 2500 ft
Núvols disperses a una alçada de 10000 ft
calitja

TAF: VANP 211700Z 2118/2203 VRB03KT 2500 HZ FEW025 SCT100

Observacions i pronòstics meteorològics de més de 4000 aeroports (METAR i TAF).

Les estacions disponibles són els punts grocs i vermells al mapa.

Posi el ratolí al punt desitjat per veure el nom de l'estació.

Feu clic per veure les observacions i els pronòstics meteorològics.

Per canviar el mapa: feu clic els botons verds amb una creu de color negre per apropar; al botó verd amb un guió per allunyar la imatge; o en les fletxes verdes per a mapes adjacents.


METAR-TAF: